createdAt,value
2023-08-03T00:04:15.786Z,5.43
2023-08-03T00:09:07.556Z,5.03
2023-08-03T00:13:59.436Z,5.15
2023-08-03T00:18:51.193Z,5.55
2023-08-03T00:23:42.947Z,5.15
2023-08-03T00:28:34.633Z,4.38
2023-08-03T00:33:26.568Z,5.22
2023-08-03T00:38:18.395Z,4.60
2023-08-03T00:43:12.373Z,4.47
2023-08-03T00:48:04.215Z,4.43
2023-08-03T00:52:56.014Z,4.20
2023-08-03T00:57:47.854Z,4.88
2023-08-03T01:02:39.775Z,4.60
2023-08-03T01:07:31.611Z,4.15
2023-08-03T01:12:23.494Z,4.40
2023-08-03T01:17:15.406Z,4.63
2023-08-03T01:22:10.151Z,3.88
2023-08-03T01:27:02.775Z,3.85
2023-08-03T01:31:57.702Z,4.15
2023-08-03T01:36:49.503Z,3.90
2023-08-03T01:41:42.935Z,3.70
2023-08-03T01:46:35.071Z,3.63
2023-08-03T01:51:26.877Z,3.67
2023-08-03T01:56:19.783Z,3.80
2023-08-03T02:01:11.596Z,3.72
2023-08-03T02:06:03.510Z,3.42
2023-08-03T02:10:56.280Z,3.33
2023-08-03T02:15:48.067Z,3.25
2023-08-03T02:20:39.793Z,3.35
2023-08-03T02:25:31.607Z,3.42
2023-08-03T02:30:23.333Z,3.28
2023-08-03T02:35:16.099Z,3.00
2023-08-03T02:40:10.337Z,3.13
2023-08-03T02:45:02.284Z,3.67
2023-08-03T02:49:55.477Z,3.25
2023-08-03T02:54:47.491Z,2.92
2023-08-03T02:59:41.328Z,3.05
2023-08-03T03:04:34.836Z,3.15
2023-08-03T03:09:27.743Z,2.95
2023-08-03T03:14:20.823Z,3.10
2023-08-03T03:19:12.643Z,2.97
2023-08-03T03:24:06.516Z,2.63
2023-08-03T03:28:58.405Z,3.03
2023-08-03T03:33:55.888Z,2.83
2023-08-03T03:38:48.271Z,2.83
2023-08-03T03:43:40.282Z,2.70
2023-08-03T03:48:32.174Z,2.60
2023-08-03T03:53:28.539Z,2.80
2023-08-03T03:58:20.668Z,2.88
2023-08-03T04:03:12.762Z,2.92
2023-08-03T04:08:05.774Z,2.45
2023-08-03T04:12:58.412Z,2.40
2023-08-03T04:17:51.237Z,1.92
2023-08-03T04:22:51.216Z,2.40
2023-08-03T04:27:44.909Z,2.42
2023-08-03T04:32:40.574Z,2.72
2023-08-03T04:37:33.289Z,2.03
2023-08-03T04:42:26.497Z,2.13
2023-08-03T04:47:18.375Z,2.53
2023-08-03T04:52:10.679Z,2.25
2023-08-03T04:57:02.491Z,2.88
2023-08-03T05:01:59.016Z,2.50
2023-08-03T05:06:52.362Z,2.40
2023-08-03T05:11:45.892Z,2.28
2023-08-03T05:16:39.099Z,2.03
2023-08-03T05:21:30.986Z,2.17
2023-08-03T05:26:22.655Z,2.33
2023-08-03T05:31:14.541Z,2.22
2023-08-03T05:36:06.363Z,2.35
2023-08-03T05:40:58.087Z,2.20
2023-08-03T05:45:50.575Z,2.03
2023-08-03T05:50:52.977Z,2.30
2023-08-03T05:55:49.335Z,2.20
2023-08-03T06:00:50.869Z,2.53
2023-08-03T06:05:44.350Z,2.13
2023-08-03T06:10:36.259Z,2.08
2023-08-03T06:15:28.028Z,2.30
2023-08-03T06:20:23.437Z,2.50
2023-08-03T06:25:16.902Z,2.35
2023-08-03T06:30:13.987Z,2.25
2023-08-03T06:35:06.165Z,2.53
2023-08-03T06:39:58.125Z,2.50
2023-08-03T06:44:50.794Z,2.67
2023-08-03T06:49:42.565Z,2.50
2023-08-03T06:54:34.251Z,2.58
2023-08-03T06:59:25.939Z,2.50
2023-08-03T07:04:17.817Z,2.40
2023-08-03T07:09:09.545Z,2.40
2023-08-03T07:14:01.204Z,2.47
2023-08-03T07:18:53.005Z,2.67
2023-08-03T07:23:44.793Z,2.53
2023-08-03T07:28:36.443Z,2.72
2023-08-03T07:33:28.146Z,3.13
2023-08-03T07:38:19.858Z,2.50
2023-08-03T07:43:11.664Z,2.38
2023-08-03T07:48:03.625Z,2.42
2023-08-03T07:52:55.480Z,2.28
2023-08-03T07:57:47.224Z,2.60
2023-08-03T08:02:38.969Z,2.45
2023-08-03T08:07:30.758Z,2.63
2023-08-03T08:12:22.435Z,2.47
2023-08-03T08:17:14.615Z,2.40
2023-08-03T08:22:15.766Z,2.65
2023-08-03T08:27:09.517Z,2.30
2023-08-03T08:32:01.842Z,2.47
2023-08-03T08:36:56.688Z,2.53
2023-08-03T08:41:48.463Z,2.70
2023-08-03T08:46:42.802Z,2.30
2023-08-03T09:01:27.232Z,2.38
2023-08-03T09:06:24.327Z,2.28
2023-08-03T09:11:17.065Z,2.42
2023-08-03T09:16:23.751Z,3.30
2023-08-03T09:26:12.850Z,2.28
2023-08-03T09:31:05.825Z,2.40
2023-08-03T09:36:04.183Z,2.42
2023-08-03T09:40:56.086Z,2.38
2023-08-03T09:45:48.044Z,2.60
2023-08-03T09:50:47.640Z,2.25
2023-08-03T09:55:47.224Z,2.10
2023-08-03T10:00:40.232Z,2.50
2023-08-03T10:05:35.106Z,2.75
2023-08-03T10:10:28.314Z,3.10
2023-08-03T10:15:20.380Z,2.42
2023-08-03T10:20:13.156Z,2.50
2023-08-03T10:25:20.667Z,2.50
2023-08-03T10:30:12.477Z,2.00
2023-08-03T10:35:41.513Z,2.75
2023-08-03T10:40:33.312Z,2.15
2023-08-03T10:45:27.698Z,2.30
2023-08-03T10:50:19.532Z,2.42
2023-08-03T10:55:22.935Z,2.03
2023-08-03T11:00:14.974Z,2.17
2023-08-03T11:05:09.484Z,2.58
2023-08-03T11:10:03.442Z,2.45
2023-08-03T11:14:57.177Z,2.50
2023-08-03T11:19:49.076Z,2.22
2023-08-03T11:24:41.267Z,2.15
2023-08-03T11:29:36.989Z,2.30
2023-08-03T11:34:28.827Z,2.35
2023-08-03T11:39:21.259Z,2.40
2023-08-03T11:44:13.015Z,2.33
2023-08-03T11:49:05.124Z,2.42
2023-08-03T11:53:56.859Z,2.10
2023-08-03T11:58:48.590Z,2.08
2023-08-03T12:03:40.657Z,2.47
2023-08-03T12:08:45.122Z,2.03
2023-08-03T12:13:39.149Z,2.10
2023-08-03T12:18:31.400Z,2.00
2023-08-03T12:23:23.334Z,2.30
2023-08-03T12:28:15.502Z,2.25
2023-08-03T12:33:08.692Z,2.08
2023-08-03T12:38:00.528Z,1.90
2023-08-03T12:42:52.328Z,2.05
2023-08-03T12:47:51.884Z,2.22
2023-08-03T12:52:45.036Z,2.03
2023-08-03T12:57:36.748Z,1.73
2023-08-03T13:02:31.657Z,2.20
2023-08-03T13:07:23.549Z,2.00
2023-08-03T13:12:16.009Z,1.73
2023-08-03T13:17:08.243Z,2.10
2023-08-03T13:22:00.257Z,1.92
2023-08-03T13:26:51.960Z,2.00
2023-08-03T13:31:44.673Z,2.00
2023-08-03T13:36:36.545Z,1.80
2023-08-03T13:41:28.331Z,2.38
2023-08-03T13:46:20.375Z,2.20
2023-08-03T13:51:12.250Z,2.20
2023-08-03T13:56:04.068Z,1.63
2023-08-03T14:00:55.989Z,1.70
2023-08-03T14:25:43.736Z,1.77
2023-08-03T14:30:35.641Z,2.13
2023-08-03T14:40:22.137Z,1.83
2023-08-03T14:45:14.871Z,1.95
2023-08-03T14:55:02.249Z,1.80
2023-08-03T14:59:54.303Z,2.03
2023-08-03T15:04:47.345Z,1.98
2023-08-03T15:09:39.499Z,1.85
2023-08-03T15:14:31.502Z,1.90
2023-08-03T15:19:24.176Z,2.00
2023-08-03T15:24:17.801Z,1.90
2023-08-03T15:29:23.126Z,2.00
2023-08-03T15:34:18.219Z,1.80
2023-08-03T15:39:11.169Z,1.60
2023-08-03T15:44:06.226Z,1.77
2023-08-03T15:53:59.171Z,2.05
2023-08-03T15:58:54.297Z,2.05
2023-08-03T16:03:46.197Z,8.60
2023-08-03T16:08:38.026Z,8.15
2023-08-03T16:13:30.799Z,5.82
2023-08-03T16:18:22.567Z,6.43
2023-08-03T16:23:14.364Z,5.65
2023-08-03T16:28:06.170Z,4.85
2023-08-03T16:32:58.025Z,5.00
2023-08-03T16:37:49.861Z,5.13
2023-08-03T16:42:41.677Z,5.10
2023-08-03T16:47:33.476Z,4.22
2023-08-03T16:52:25.468Z,4.03
2023-08-03T16:57:20.130Z,4.57
2023-08-03T17:02:11.916Z,4.97
2023-08-03T17:07:03.911Z,4.18
2023-08-03T17:11:55.794Z,4.35
2023-08-03T17:16:47.779Z,4.22
2023-08-03T17:21:39.802Z,4.07
2023-08-03T17:26:31.642Z,4.07
2023-08-03T17:31:23.362Z,4.63
2023-08-03T17:36:15.228Z,3.83
2023-08-03T17:41:07.088Z,3.83
2023-08-03T17:45:59.885Z,4.28
2023-08-03T17:50:52.129Z,4.10
2023-08-03T17:55:43.863Z,4.07
2023-08-03T18:00:35.739Z,3.72
2023-08-03T18:05:28.212Z,3.60
2023-08-03T18:10:19.998Z,3.13
2023-08-03T18:15:13.602Z,3.90
2023-08-03T18:20:06.277Z,3.33
2023-08-03T18:24:58.115Z,2.90
2023-08-03T18:29:50.914Z,3.15
2023-08-03T18:34:42.795Z,3.10
2023-08-03T18:39:34.618Z,3.20
2023-08-03T18:44:26.400Z,3.22
2023-08-03T18:49:18.249Z,2.60
2023-08-03T18:54:10.044Z,2.70
2023-08-03T18:59:01.801Z,2.50
2023-08-03T19:03:55.212Z,2.47
2023-08-03T19:08:47.163Z,2.88
2023-08-03T19:13:39.554Z,2.50
2023-08-03T19:18:32.064Z,2.58
2023-08-03T19:23:26.231Z,2.47
2023-08-03T19:28:18.108Z,2.67
2023-08-03T19:33:11.745Z,3.72
2023-08-03T19:38:04.112Z,2.70
2023-08-03T19:42:56.038Z,2.40
2023-08-03T19:47:56.403Z,2.58
2023-08-03T20:07:38.180Z,2.67
2023-08-03T20:17:26.668Z,2.83
2023-08-03T20:22:22.113Z,2.53
2023-08-03T20:27:13.913Z,2.80
2023-08-03T20:32:05.979Z,2.80
2023-08-03T20:36:58.031Z,2.40
2023-08-03T20:51:39.257Z,2.38
2023-08-03T20:56:30.985Z,2.88
2023-08-03T21:01:22.941Z,2.63
2023-08-03T21:06:14.793Z,2.35
2023-08-03T21:11:15.561Z,2.45
2023-08-03T21:16:12.146Z,2.15
2023-08-03T21:21:04.331Z,1.90
2023-08-03T21:25:56.541Z,2.47
2023-08-03T21:30:48.373Z,2.60
2023-08-03T21:35:40.125Z,2.33
2023-08-03T21:40:32.017Z,1.92
2023-08-03T21:45:23.879Z,2.05
2023-08-03T21:50:16.564Z,2.28
2023-08-03T21:55:09.909Z,1.92
2023-08-03T22:00:01.826Z,2.17
2023-08-03T22:04:53.635Z,1.90
2023-08-03T22:09:45.491Z,1.80
2023-08-03T22:14:37.329Z,1.90
2023-08-03T22:19:29.128Z,1.92
2023-08-03T22:24:21.542Z,2.10
2023-08-03T22:29:13.921Z,2.13
2023-08-03T22:34:05.670Z,1.95
2023-08-03T22:38:57.447Z,1.95
2023-08-03T22:43:49.299Z,1.85
2023-08-03T22:48:41.050Z,1.80
2023-08-03T22:53:32.753Z,1.92
2023-08-03T22:58:26.866Z,2.10
2023-08-03T23:03:18.786Z,2.00
2023-08-03T23:08:10.658Z,1.67
2023-08-03T23:13:02.359Z,1.80
2023-08-03T23:17:57.190Z,2.00
2023-08-03T23:22:48.965Z,1.80
2023-08-03T23:27:40.716Z,2.20
2023-08-03T23:32:32.599Z,1.95
2023-08-03T23:37:24.469Z,1.88
2023-08-03T23:42:16.230Z,2.05
2023-08-03T23:47:08.024Z,1.83
2023-08-03T23:51:59.731Z,1.90
2023-08-03T23:56:51.426Z,1.75
